sensor_id;sensor_type;location;lat;lon;timestamp;pressure;altitude;pressure_sealevel;temperature
78961;BMP280;68362;45.970;12.646;2023-08-17T00:00:47;101277.56;;;22.93
78961;BMP280;68362;45.970;12.646;2023-08-17T00:02:08;101279.47;;;22.73
78961;BMP280;68362;45.970;12.646;2023-08-17T00:03:11;101277.56;;;22.93
78961;BMP280;68362;45.970;12.646;2023-08-17T00:04:13;101279.16;;;22.94
78961;BMP280;68362;45.970;12.646;2023-08-17T00:05:15;101281.19;;;22.64
78961;BMP280;68362;45.970;12.646;2023-08-17T00:06:18;101281.91;;;22.89
78961;BMP280;68362;45.970;12.646;2023-08-17T00:07:20;101278.41;;;23.07
78961;BMP280;68362;45.970;12.646;2023-08-17T00:08:22;101279.63;;;23.28
78961;BMP280;68362;45.970;12.646;2023-08-17T00:09:24;101270.88;;;23.09
78961;BMP280;68362;45.970;12.646;2023-08-17T00:10:26;101278.03;;;23.13
78961;BMP280;68362;45.970;12.646;2023-08-17T00:11:29;101278.88;;;23.41
78961;BMP280;68362;45.970;12.646;2023-08-17T00:12:31;101275.13;;;23.56
78961;BMP280;68362;45.970;12.646;2023-08-17T00:13:33;101273.75;;;23.59
78961;BMP280;68362;45.970;12.646;2023-08-17T00:14:35;101279.09;;;23.86
78961;BMP280;68362;45.970;12.646;2023-08-17T00:15:37;101280.91;;;23.50
78961;BMP280;68362;45.970;12.646;2023-08-17T00:16:40;101276.50;;;23.81
78961;BMP280;68362;45.970;12.646;2023-08-17T00:17:43;101276.69;;;23.98
78961;BMP280;68362;45.970;12.646;2023-08-17T00:18:45;101284.41;;;24.14
78961;BMP280;68362;45.970;12.646;2023-08-17T00:19:47;101280.56;;;23.78
78961;BMP280;68362;45.970;12.646;2023-08-17T00:20:49;101281.94;;;24.03
78961;BMP280;68362;45.970;12.646;2023-08-17T00:21:52;101273.03;;;24.08
78961;BMP280;68362;45.970;12.646;2023-08-17T00:22:55;101282.03;;;24.12
78961;BMP280;68362;45.970;12.646;2023-08-17T00:23:57;101281.69;;;23.91
78961;BMP280;68362;45.970;12.646;2023-08-17T00:24:59;101273.06;;;24.17
78961;BMP280;68362;45.970;12.646;2023-08-17T00:26:01;101273.16;;;24.25
78961;BMP280;68362;45.970;12.646;2023-08-17T00:27:03;101281.81;;;24.22
78961;BMP280;68362;45.970;12.646;2023-08-17T00:28:05;101278.72;;;23.79
78961;BMP280;68362;45.970;12.646;2023-08-17T00:29:08;101281.50;;;23.88
78961;BMP280;68362;45.970;12.646;2023-08-17T00:30:10;101275.63;;;23.72
78961;BMP280;68362;45.970;12.646;2023-08-17T00:31:12;101277.91;;;23.92
78961;BMP280;68362;45.970;12.646;2023-08-17T00:32:14;101276.53;;;23.67
78961;BMP280;68362;45.970;12.646;2023-08-17T00:33:19;101278.38;;;23.67
78961;BMP280;68362;45.970;12.646;2023-08-17T00:34:21;101273.69;;;23.31
78961;BMP280;68362;45.970;12.646;2023-08-17T00:35:23;101278.34;;;23.26
78961;BMP280;68362;45.970;12.646;2023-08-17T00:36:25;101283.63;;;23.31
78961;BMP280;68362;45.970;12.646;2023-08-17T00:37:27;101283.19;;;23.10
78961;BMP280;68362;45.970;12.646;2023-08-17T00:38:29;101288.13;;;23.03
78961;BMP280;68362;45.970;12.646;2023-08-17T00:39:32;101283.38;;;23.00
78961;BMP280;68362;45.970;12.646;2023-08-17T00:40:34;101284.78;;;23.11
78961;BMP280;68362;45.970;12.646;2023-08-17T00:41:36;101284.69;;;22.83
78961;BMP280;68362;45.970;12.646;2023-08-17T00:42:38;101288.44;;;23.15
78961;BMP280;68362;45.970;12.646;2023-08-17T00:43:41;101288.72;;;23.00
78961;BMP280;68362;45.970;12.646;2023-08-17T00:44:43;101285.88;;;23.10
78961;BMP280;68362;45.970;12.646;2023-08-17T00:45:46;101288.53;;;23.10
78961;BMP280;68362;45.970;12.646;2023-08-17T00:46:49;101290.63;;;22.80
78961;BMP280;68362;45.970;12.646;2023-08-17T00:47:51;101288.16;;;22.65
78961;BMP280;68362;45.970;12.646;2023-08-17T00:48:54;101288.81;;;23.08
78961;BMP280;68362;45.970;12.646;2023-08-17T00:49:58;101284.81;;;22.73
78961;BMP280;68362;45.970;12.646;2023-08-17T00:51:01;101287.75;;;23.09
78961;BMP280;68362;45.970;12.646;2023-08-17T00:52:04;101283.69;;;23.26
78961;BMP280;68362;45.970;12.646;2023-08-17T00:53:07;101281.25;;;23.29
78961;BMP280;68362;45.970;12.646;2023-08-17T00:54:18;101285.81;;;23.42
78961;BMP280;68362;45.970;12.646;2023-08-17T00:55:24;101274.34;;;23.56
78961;BMP280;68362;45.970;12.646;2023-08-17T00:56:27;101273.94;;;23.62
78961;BMP280;68362;45.970;12.646;2023-08-17T00:57:29;101280.31;;;23.53
78961;BMP280;68362;45.970;12.646;2023-08-17T00:58:31;101279.25;;;23.35
78961;BMP280;68362;45.970;12.646;2023-08-17T00:59:34;101280.44;;;23.29
78961;BMP280;68362;45.970;12.646;2023-08-17T01:00:39;101286.47;;;22.88
78961;BMP280;68362;45.970;12.646;2023-08-17T01:01:42;101288.72;;;23.00
78961;BMP280;68362;45.970;12.646;2023-08-17T01:02:44;101283.25;;;23.05
78961;BMP280;68362;45.970;12.646;2023-08-17T01:03:47;101282.72;;;22.89
78961;BMP280;68362;45.970;12.646;2023-08-17T01:04:53;101284.41;;;22.99
78961;BMP280;68362;45.970;12.646;2023-08-17T01:05:56;101285.28;;;22.80
78961;BMP280;68362;45.970;12.646;2023-08-17T01:06:58;101278.53;;;22.83
78961;BMP280;68362;45.970;12.646;2023-08-17T01:08:00;101281.00;;;22.79
78961;BMP280;68362;45.970;12.646;2023-08-17T01:09:03;101282.81;;;22.65
78961;BMP280;68362;45.970;12.646;2023-08-17T01:10:06;101278.56;;;22.97
78961;BMP280;68362;45.970;12.646;2023-08-17T01:11:44;101278.75;;;22.87
78961;BMP280;68362;45.970;12.646;2023-08-17T01:13:33;101279.53;;;22.87
78961;BMP280;68362;45.970;12.646;2023-08-17T01:14:50;101275.56;;;22.66
78961;BMP280;68362;45.970;12.646;2023-08-17T01:15:56;101272.81;;;22.90
78961;BMP280;68362;45.970;12.646;2023-08-17T01:17:06;101275.38;;;22.95
78961;BMP280;68362;45.970;12.646;2023-08-17T01:18:29;101272.97;;;23.12
78961;BMP280;68362;45.970;12.646;2023-08-17T01:19:33;101273.47;;;23.14
78961;BMP280;68362;45.970;12.646;2023-08-17T01:20:36;101274.81;;;23.11
78961;BMP280;68362;45.970;12.646;2023-08-17T01:21:44;101268.09;;;23.00
78961;BMP280;68362;45.970;12.646;2023-08-17T01:22:49;101274.13;;;22.73
78961;BMP280;68362;45.970;12.646;2023-08-17T01:23:57;101276.19;;;22.95
78961;BMP280;68362;45.970;12.646;2023-08-17T01:25:01;101280.25;;;22.93
78961;BMP280;68362;45.970;12.646;2023-08-17T01:26:03;101279.00;;;23.04
78961;BMP280;68362;45.970;12.646;2023-08-17T01:27:05;101284.50;;;22.94
78961;BMP280;68362;45.970;12.646;2023-08-17T01:28:07;101279.31;;;23.16
78961;BMP280;68362;45.970;12.646;2023-08-17T01:29:09;101280.31;;;23.20
78961;BMP280;68362;45.970;12.646;2023-08-17T01:30:15;101283.94;;;23.29
78961;BMP280;68362;45.970;12.646;2023-08-17T01:31:26;101281.81;;;23.12
78961;BMP280;68362;45.970;12.646;2023-08-17T01:34:07;101280.41;;;23.15
78961;BMP280;68362;45.970;12.646;2023-08-17T01:36:36;101280.44;;;22.45
78961;BMP280;68362;45.970;12.646;2023-08-17T01:37:40;101279.56;;;22.49
78961;BMP280;68362;45.970;12.646;2023-08-17T01:38:44;101276.66;;;22.27
78961;BMP280;68362;45.970;12.646;2023-08-17T01:39:52;101277.59;;;22.55
78961;BMP280;68362;45.970;12.646;2023-08-17T01:40:57;101272.09;;;22.46
78961;BMP280;68362;45.970;12.646;2023-08-17T01:42:01;101284.41;;;22.66
78961;BMP280;68362;45.970;12.646;2023-08-17T01:43:03;101275.81;;;22.50
78961;BMP280;68362;45.970;12.646;2023-08-17T01:44:05;101275.28;;;22.67
78961;BMP280;68362;45.970;12.646;2023-08-17T01:45:08;101275.19;;;22.72
78961;BMP280;68362;45.970;12.646;2023-08-17T01:46:10;101282.50;;;22.86
78961;BMP280;68362;45.970;12.646;2023-08-17T01:47:14;101281.13;;;22.88
78961;BMP280;68362;45.970;12.646;2023-08-17T01:48:16;101282.72;;;22.89
78961;BMP280;68362;45.970;12.646;2023-08-17T01:49:19;101274.97;;;22.88
78961;BMP280;68362;45.970;12.646;2023-08-17T01:50:21;101275.19;;;22.72
78961;BMP280;68362;45.970;12.646;2023-08-17T01:51:23;101277.03;;;22.77
78961;BMP280;68362;45.970;12.646;2023-08-17T01:52:27;101275.19;;;22.91
78961;BMP280;68362;45.970;12.646;2023-08-17T01:53:30;101274.97;;;22.88
78961;BMP280;68362;45.970;12.646;2023-08-17T01:54:32;101272.22;;;22.93
78961;BMP280;68362;45.970;12.646;2023-08-17T01:55:34;101268.22;;;22.76
78961;BMP280;68362;45.970;12.646;2023-08-17T01:56:37;101271.81;;;22.48
78961;BMP280;68362;45.970;12.646;2023-08-17T01:57:39;101266.97;;;22.69
78961;BMP280;68362;45.970;12.646;2023-08-17T01:58:43;101268.97;;;22.58
78961;BMP280;68362;45.970;12.646;2023-08-17T01:59:45;101269.59;;;22.74
78961;BMP280;68362;45.970;12.646;2023-08-17T02:00:47;101265.34;;;22.87
78961;BMP280;68362;45.970;12.646;2023-08-17T02:01:49;101265.31;;;22.54
78961;BMP280;68362;45.970;12.646;2023-08-17T02:02:52;101252.38;;;22.42
78961;BMP280;68362;45.970;12.646;2023-08-17T02:03:54;101256.03;;;22.28
78961;BMP280;68362;45.970;12.646;2023-08-17T02:04:57;101257.53;;;22.15
78961;BMP280;68362;45.970;12.646;2023-08-17T02:05:59;101253.59;;;22.12
78961;BMP280;68362;45.970;12.646;2023-08-17T02:07:01;101256.06;;;22.04
78961;BMP280;68362;45.970;12.646;2023-08-17T02:08:04;101252.75;;;22.12
78961;BMP280;68362;45.970;12.646;2023-08-17T02:09:08;101249.94;;;22.41
78961;BMP280;68362;45.970;12.646;2023-08-17T02:10:10;101255.25;;;22.65
78961;BMP280;68362;45.970;12.646;2023-08-17T02:11:12;101252.50;;;22.70
78961;BMP280;68362;45.970;12.646;2023-08-17T02:12:14;101254.31;;;22.74
78961;BMP280;68362;45.970;12.646;2023-08-17T02:13:18;101259.53;;;22.47
78961;BMP280;68362;45.970;12.646;2023-08-17T02:14:20;101249.41;;;22.44
78961;BMP280;68362;45.970;12.646;2023-08-17T02:15:22;101249.81;;;22.51
78961;BMP280;68362;45.970;12.646;2023-08-17T02:16:24;101245.63;;;22.45
78961;BMP280;68362;45.970;12.646;2023-08-17T02:17:26;101256.63;;;22.62
78961;BMP280;68362;45.970;12.646;2023-08-17T02:18:29;101257.44;;;22.63
78961;BMP280;68362;45.970;12.646;2023-08-17T02:19:33;101254.16;;;22.47
78961;BMP280;68362;45.970;12.646;2023-08-17T02:20:35;101253.16;;;22.43
78961;BMP280;68362;45.970;12.646;2023-08-17T02:21:37;101259.38;;;22.57
78961;BMP280;68362;45.970;12.646;2023-08-17T02:22:39;101250.13;;;22.82
78961;BMP280;68362;45.970;12.646;2023-08-17T02:23:42;101252.59;;;22.78
78961;BMP280;68362;45.970;12.646;2023-08-17T02:24:44;101257.91;;;22.83
78961;BMP280;68362;45.970;12.646;2023-08-17T02:25:47;101249.72;;;22.75
78961;BMP280;68362;45.970;12.646;2023-08-17T02:26:49;101247.41;;;22.87
78961;BMP280;68362;45.970;12.646;2023-08-17T02:27:52;101252.97;;;22.91
78961;BMP280;68362;45.970;12.646;2023-08-17T02:28:54;101253.28;;;22.70
78961;BMP280;68362;45.970;12.646;2023-08-17T02:29:56;101248.50;;;22.67
78961;BMP280;68362;45.970;12.646;2023-08-17T02:30:58;101246.19;;;22.79
78961;BMP280;68362;45.970;12.646;2023-08-17T02:32:01;101245.03;;;22.86
78961;BMP280;68362;45.970;12.646;2023-08-17T02:33:03;101246.78;;;22.76
78961;BMP280;68362;45.970;12.646;2023-08-17T02:34:05;101253.34;;;22.84
78961;BMP280;68362;45.970;12.646;2023-08-17T02:35:08;101255.75;;;22.48
78961;BMP280;68362;45.970;12.646;2023-08-17T02:36:10;101246.00;;;22.57
78961;BMP280;68362;45.970;12.646;2023-08-17T02:37:12;101249.91;;;22.65
78961;BMP280;68362;45.970;12.646;2023-08-17T02:38:14;101252.28;;;22.66
78961;BMP280;68362;45.970;12.646;2023-08-17T02:39:16;101252.22;;;22.52
78961;BMP280;68362;45.970;12.646;2023-08-17T02:40:19;101247.44;;;22.68
78961;BMP280;68362;45.970;12.646;2023-08-17T02:41:21;101250.69;;;22.65
78961;BMP280;68362;45.970;12.646;2023-08-17T02:42:23;101248.47;;;22.53
78961;BMP280;68362;45.970;12.646;2023-08-17T02:43:25;101245.84;;;22.48
78961;BMP280;68362;45.970;12.646;2023-08-17T02:44:27;101245.63;;;22.45
78961;BMP280;68362;45.970;12.646;2023-08-17T02:45:30;101239.81;;;22.38
78961;BMP280;68362;45.970;12.646;2023-08-17T02:46:32;101245.47;;;22.55
78961;BMP280;68362;45.970;12.646;2023-08-17T02:47:34;101240.50;;;22.48
78961;BMP280;68362;45.970;12.646;2023-08-17T02:48:36;101243.25;;;22.62
78961;BMP280;68362;45.970;12.646;2023-08-17T02:49:38;101240.00;;;22.28
78961;BMP280;68362;45.970;12.646;2023-08-17T02:50:41;101244.25;;;22.47
78961;BMP280;68362;45.970;12.646;2023-08-17T02:51:43;101241.91;;;22.41
78961;BMP280;68362;45.970;12.646;2023-08-17T02:52:45;101242.31;;;22.53
78961;BMP280;68362;45.970;12.646;2023-08-17T02:53:47;101239.34;;;22.36
78961;BMP280;68362;45.970;12.646;2023-08-17T02:54:49;101232.34;;;22.40
78961;BMP280;68362;45.970;12.646;2023-08-17T02:55:51;101239.78;;;22.43
78961;BMP280;68362;45.970;12.646;2023-08-17T02:56:54;101229.56;;;22.45
78961;BMP280;68362;45.970;12.646;2023-08-17T02:57:56;101232.84;;;22.61
78961;BMP280;68362;45.970;12.646;2023-08-17T02:58:58;101238.47;;;22.59
78961;BMP280;68362;45.970;12.646;2023-08-17T03:00:00;101238.34;;;22.50
78961;BMP280;68362;45.970;12.646;2023-08-17T03:01:02;101234.63;;;22.65
78961;BMP280;68362;45.970;12.646;2023-08-17T03:02:05;101228.06;;;22.39
78961;BMP280;68362;45.970;12.646;2023-08-17T03:03:07;101230.25;;;22.37
78961;BMP280;68362;45.970;12.646;2023-08-17T03:04:09;101221.63;;;22.40
78961;BMP280;68362;45.970;12.646;2023-08-17T03:05:12;101227.41;;;22.47
78961;BMP280;68362;45.970;12.646;2023-08-17T03:06:14;101227.47;;;22.61
78961;BMP280;68362;45.970;12.646;2023-08-17T03:07:16;101225.56;;;22.61
78961;BMP280;68362;45.970;12.646;2023-08-17T03:08:18;101225.19;;;22.54
78961;BMP280;68362;45.970;12.646;2023-08-17T03:09:21;101229.28;;;22.65
78961;BMP280;68362;45.970;12.646;2023-08-17T03:10:23;101235.63;;;22.69
78961;BMP280;68362;45.970;12.646;2023-08-17T03:11:26;101229.03;;;22.62
78961;BMP280;68362;45.970;12.646;2023-08-17T03:12:28;101230.78;;;22.71
78961;BMP280;68362;45.970;12.646;2023-08-17T03:13:31;101226.72;;;22.55
78961;BMP280;68362;45.970;12.646;2023-08-17T03:14:33;101220.38;;;22.51
78961;BMP280;68362;45.970;12.646;2023-08-17T03:15:35;101226.28;;;22.53
78961;BMP280;68362;45.970;12.646;2023-08-17T03:16:42;101217.47;;;22.66
78961;BMP280;68362;45.970;12.646;2023-08-17T03:17:44;101219.25;;;22.57
78961;BMP280;68362;45.970;12.646;2023-08-17T03:18:47;101220.16;;;22.66
78961;BMP280;68362;45.970;12.646;2023-08-17T03:19:50;101215.22;;;22.73
78961;BMP280;68362;45.970;12.646;2023-08-17T03:20:52;101214.06;;;22.79
78961;BMP280;68362;45.970;12.646;2023-08-17T03:21:54;101221.75;;;22.67
78961;BMP280;68362;45.970;12.646;2023-08-17T03:22:56;101213.47;;;22.82
78961;BMP280;68362;45.970;12.646;2023-08-17T03:23:58;101220.63;;;22.87
78961;BMP280;68362;45.970;12.646;2023-08-17T03:25:01;101213.78;;;22.95
78961;BMP280;68362;45.970;12.646;2023-08-17T03:26:03;101219.66;;;22.97
78961;BMP280;68362;45.970;12.646;2023-08-17T03:27:05;101217.81;;;22.78
78961;BMP280;68362;45.970;12.646;2023-08-17T03:28:07;101224.06;;;22.74
78961;BMP280;68362;45.970;12.646;2023-08-17T03:29:09;101221.91;;;22.57
78961;BMP280;68362;45.970;12.646;2023-08-17T03:30:12;101228.41;;;22.51
78961;BMP280;68362;45.970;12.646;2023-08-17T03:31:14;101227.34;;;22.33
78961;BMP280;68362;45.970;12.646;2023-08-17T03:32:17;101222.63;;;22.44
78961;BMP280;68362;45.970;12.646;2023-08-17T03:33:18;101228.41;;;22.51
78961;BMP280;68362;45.970;12.646;2023-08-17T03:34:21;101232.16;;;22.50
78961;BMP280;68362;45.970;12.646;2023-08-17T03:35:23;101225.22;;;22.49
78961;BMP280;68362;45.970;12.646;2023-08-17T03:36:25;101232.16;;;22.50
78961;BMP280;68362;45.970;12.646;2023-08-17T03:37:27;101221.91;;;22.57
78961;BMP280;68362;45.970;12.646;2023-08-17T03:38:30;101230.00;;;22.52
78961;BMP280;68362;45.970;12.646;2023-08-17T03:39:32;101223.47;;;22.58
78961;BMP280;68362;45.970;12.646;2023-08-17T03:40:34;101227.91;;;22.49
78961;BMP280;68362;45.970;12.646;2023-08-17T03:41:36;101226.28;;;22.53
78961;BMP280;68362;45.970;12.646;2023-08-17T03:42:38;101230.88;;;22.66
78961;BMP280;68362;45.970;12.646;2023-08-17T03:43:40;101229.91;;;22.76
78961;BMP280;68362;45.970;12.646;2023-08-17T03:44:43;101220.81;;;22.77
78961;BMP280;68362;45.970;12.646;2023-08-17T03:45:45;101227.28;;;22.90
78961;BMP280;68362;45.970;12.646;2023-08-17T03:46:47;101229.94;;;22.90
78961;BMP280;68362;45.970;12.646;2023-08-17T03:47:49;101224.09;;;22.88
78961;BMP280;68362;45.970;12.646;2023-08-17T03:48:51;101224.09;;;22.88
78961;BMP280;68362;45.970;12.646;2023-08-17T03:49:53;101229.56;;;22.96
78961;BMP280;68362;45.970;12.646;2023-08-17T03:50:56;101233.97;;;22.73
78961;BMP280;68362;45.970;12.646;2023-08-17T03:51:58;101235.03;;;22.72
78961;BMP280;68362;45.970;12.646;2023-08-17T03:53:00;101233.34;;;22.95
78961;BMP280;68362;45.970;12.646;2023-08-17T03:54:02;101235.50;;;22.93
78961;BMP280;68362;45.970;12.646;2023-08-17T03:55:05;101237.31;;;22.98
78961;BMP280;68362;45.970;12.646;2023-08-17T03:56:09;101239.78;;;23.08
78961;BMP280;68362;45.970;12.646;2023-08-17T03:57:12;101235.03;;;23.05
78961;BMP280;68362;45.970;12.646;2023-08-17T03:58:15;101236.19;;;23.18
78961;BMP280;68362;45.970;12.646;2023-08-17T03:59:17;101241.41;;;23.09
78961;BMP280;68362;45.970;12.646;2023-08-17T04:00:19;101245.03;;;22.99
78961;BMP280;68362;45.970;12.646;2023-08-17T04:01:21;101246.34;;;23.02
78961;BMP280;68362;45.970;12.646;2023-08-17T04:02:24;101241.50;;;23.04
78961;BMP280;68362;45.970;12.646;2023-08-17T04:03:26;101239.31;;;23.06
78961;BMP280;68362;45.970;12.646;2023-08-17T04:04:28;101248.16;;;23.06
78961;BMP280;68362;45.970;12.646;2023-08-17T04:05:30;101249.44;;;23.09
78961;BMP280;68362;45.970;12.646;2023-08-17T04:06:32;101244.69;;;23.06
78961;BMP280;68362;45.970;12.646;2023-08-17T04:07:36;101238.91;;;22.99
78961;BMP280;68362;45.970;12.646;2023-08-17T04:08:38;101244.13;;;22.90
78961;BMP280;68362;45.970;12.646;2023-08-17T04:09:43;101243.41;;;22.84
78961;BMP280;68362;45.970;12.646;2023-08-17T04:10:47;101235.84;;;22.73
78961;BMP280;68362;45.970;12.646;2023-08-17T04:11:49;101245.53;;;22.69
78961;BMP280;68362;45.970;12.646;2023-08-17T04:12:51;101246.06;;;22.52
78961;BMP280;68362;45.970;12.646;2023-08-17T04:13:54;101244.47;;;22.51
78961;BMP280;68362;45.970;12.646;2023-08-17T04:14:56;101241.75;;;22.56
78961;BMP280;68362;45.970;12.646;2023-08-17T04:15:58;101246.38;;;22.64
78961;BMP280;68362;45.970;12.646;2023-08-17T04:17:00;101241.97;;;22.73
78961;BMP280;68362;45.970;12.646;2023-08-17T04:18:02;101244.31;;;22.80
78961;BMP280;68362;45.970;12.646;2023-08-17T04:19:05;101242.47;;;22.75
78961;BMP280;68362;45.970;12.646;2023-08-17T04:20:07;101249.78;;;22.89
78961;BMP280;68362;45.970;12.646;2023-08-17T04:21:10;101241.84;;;22.83
78961;BMP280;68362;45.970;12.646;2023-08-17T04:22:12;101247.41;;;22.87
78961;BMP280;68362;45.970;12.646;2023-08-17T04:23:14;101240.72;;;22.84
78961;BMP280;68362;45.970;12.646;2023-08-17T04:24:16;101248.59;;;22.81
78961;BMP280;68362;45.970;12.646;2023-08-17T04:25:18;101235.50;;;22.61
78961;BMP280;68362;45.970;12.646;2023-08-17T04:26:21;101241.94;;;22.60
78961;BMP280;68362;45.970;12.646;2023-08-17T04:27:23;101246.97;;;22.61
78961;BMP280;68362;45.970;12.646;2023-08-17T04:28:25;101244.75;;;22.68
78961;BMP280;68362;45.970;12.646;2023-08-17T04:29:28;101242.38;;;22.67
78961;BMP280;68362;45.970;12.646;2023-08-17T04:30:30;101249.53;;;22.85
78961;BMP280;68362;45.970;12.646;2023-08-17T04:31:32;101235.31;;;22.90
78961;BMP280;68362;45.970;12.646;2023-08-17T04:32:34;101241.97;;;22.73
78961;BMP280;68362;45.970;12.646;2023-08-17T04:33:36;101242.09;;;22.82
78961;BMP280;68362;45.970;12.646;2023-08-17T04:34:38;101245.03;;;22.86
78961;BMP280;68362;45.970;12.646;2023-08-17T04:35:46;101239.06;;;22.89
78961;BMP280;68362;45.970;12.646;2023-08-17T04:36:49;101241.56;;;22.99
78961;BMP280;68362;45.970;12.646;2023-08-17T04:37:51;101242.94;;;22.64
78961;BMP280;68362;45.970;12.646;2023-08-17T04:38:53;101238.03;;;22.71
78961;BMP280;68362;45.970;12.646;2023-08-17T04:39:55;101245.03;;;22.99
78961;BMP280;68362;45.970;12.646;2023-08-17T04:40:57;101243.19;;;23.00
78961;BMP280;68362;45.970;12.646;2023-08-17T04:42:00;101245.59;;;23.15
78961;BMP280;68362;45.970;12.646;2023-08-17T04:43:02;101244.59;;;23.25
78961;BMP280;68362;45.970;12.646;2023-08-17T04:44:04;101240.56;;;23.27
78961;BMP280;68362;45.970;12.646;2023-08-17T04:45:07;101248.00;;;23.30
78961;BMP280;68362;45.970;12.646;2023-08-17T04:46:09;101243.69;;;23.15
78961;BMP280;68362;45.970;12.646;2023-08-17T04:47:11;101244.00;;;23.28
78961;BMP280;68362;45.970;12.646;2023-08-17T04:48:13;101240.84;;;22.79
78961;BMP280;68362;45.970;12.646;2023-08-17T04:49:16;101240.59;;;22.76
78961;BMP280;68362;45.970;12.646;2023-08-17T04:50:18;101244.09;;;23.09
78961;BMP280;68362;45.970;12.646;2023-08-17T04:51:20;101238.34;;;23.15
78961;BMP280;68362;45.970;12.646;2023-08-17T04:52:22;101246.69;;;23.28
78961;BMP280;68362;45.970;12.646;2023-08-17T04:53:24;101245.13;;;23.40
78961;BMP280;68362;45.970;12.646;2023-08-17T04:54:26;101248.50;;;23.46
78961;BMP280;68362;45.970;12.646;2023-08-17T04:55:28;101248.19;;;23.48
78961;BMP280;68362;45.970;12.646;2023-08-17T04:56:30;101249.00;;;22.88
78961;BMP280;68362;45.970;12.646;2023-08-17T04:57:33;101252.16;;;22.39
78961;BMP280;68362;45.970;12.646;2023-08-17T04:58:35;101246.50;;;22.21
78961;BMP280;68362;45.970;12.646;2023-08-17T04:59:37;101254.31;;;22.37
78961;BMP280;68362;45.970;12.646;2023-08-17T05:00:39;101254.16;;;22.47
78961;BMP280;68362;45.970;12.646;2023-08-17T05:01:41;101259.28;;;22.25
78961;BMP280;68362;45.970;12.646;2023-08-17T05:02:43;101254.81;;;22.39
78961;BMP280;68362;45.970;12.646;2023-08-17T05:03:46;101250.41;;;22.48
78961;BMP280;68362;45.970;12.646;2023-08-17T05:04:48;101249.47;;;22.39
78961;BMP280;68362;45.970;12.646;2023-08-17T05:05:53;101247.44;;;22.31
78961;BMP280;68362;45.970;12.646;2023-08-17T05:06:55;101251.25;;;22.25
78961;BMP280;68362;45.970;12.646;2023-08-17T05:07:58;101255.47;;;22.68
78961;BMP280;68362;45.970;12.646;2023-08-17T05:09:00;101252.34;;;22.80
78961;BMP280;68362;45.970;12.646;2023-08-17T05:10:02;101254.91;;;22.85
78961;BMP280;68362;45.970;12.646;2023-08-17T05:11:04;101248.97;;;22.74
78961;BMP280;68362;45.970;12.646;2023-08-17T05:12:07;101243.59;;;23.07
78961;BMP280;68362;45.970;12.646;2023-08-17T05:13:09;101247.69;;;23.18
78961;BMP280;68362;45.970;12.646;2023-08-17T05:14:12;101248.25;;;23.15
78961;BMP280;68362;45.970;12.646;2023-08-17T05:15:14;101241.94;;;23.38
78961;BMP280;68362;45.970;12.646;2023-08-17T05:16:16;101248.41;;;23.24
78961;BMP280;68362;45.970;12.646;2023-08-17T05:17:18;101245.59;;;23.29
78961;BMP280;68362;45.970;12.646;2023-08-17T05:18:21;101245.31;;;23.30
78961;BMP280;68362;45.970;12.646;2023-08-17T05:19:23;101248.28;;;22.82
78961;BMP280;68362;45.970;12.646;2023-08-17T05:20:25;101253.31;;;23.17
78961;BMP280;68362;45.970;12.646;2023-08-17T05:21:30;101244.00;;;22.81
78961;BMP280;68362;45.970;12.646;2023-08-17T05:22:32;101246.50;;;23.24
78961;BMP280;68362;45.970;12.646;2023-08-17T05:23:34;101250.53;;;22.94
78961;BMP280;68362;45.970;12.646;2023-08-17T05:24:37;101244.75;;;22.68
78961;BMP280;68362;45.970;12.646;2023-08-17T05:25:40;101239.53;;;22.58
78961;BMP280;68362;45.970;12.646;2023-08-17T05:26:43;101249.69;;;22.94
78961;BMP280;68362;45.970;12.646;2023-08-17T05:27:46;101246.66;;;23.00
78961;BMP280;68362;45.970;12.646;2023-08-17T05:28:48;101249.19;;;23.24
78961;BMP280;68362;45.970;12.646;2023-08-17T05:29:50;101248.44;;;23.05
78961;BMP280;68362;45.970;12.646;2023-08-17T05:30:53;101248.56;;;23.00
78961;BMP280;68362;45.970;12.646;2023-08-17T05:31:55;101244.13;;;23.36
78961;BMP280;68362;45.970;12.646;2023-08-17T05:32:58;101253.69;;;23.56
78961;BMP280;68362;45.970;12.646;2023-08-17T05:34:00;101247.09;;;23.49
78961;BMP280;68362;45.970;12.646;2023-08-17T05:35:03;101243.44;;;23.31
78961;BMP280;68362;45.970;12.646;2023-08-17T05:36:05;101250.88;;;22.88
78961;BMP280;68362;45.970;12.646;2023-08-17T05:37:07;101245.97;;;22.76
78961;BMP280;68362;45.970;12.646;2023-08-17T05:38:09;101243.91;;;23.19
78961;BMP280;68362;45.970;12.646;2023-08-17T05:39:12;101242.34;;;23.45
78961;BMP280;68362;45.970;12.646;2023-08-17T05:40:14;101248.41;;;23.51
78961;BMP280;68362;45.970;12.646;2023-08-17T05:41:16;101249.91;;;23.71
78961;BMP280;68362;45.970;12.646;2023-08-17T05:42:19;101242.72;;;23.80
78961;BMP280;68362;45.970;12.646;2023-08-17T05:43:22;101243.53;;;23.94
78961;BMP280;68362;45.970;12.646;2023-08-17T05:44:24;101243.94;;;23.46
78961;BMP280;68362;45.970;12.646;2023-08-17T05:45:26;101247.91;;;23.35
78961;BMP280;68362;45.970;12.646;2023-08-17T05:46:28;101243.41;;;23.17
78961;BMP280;68362;45.970;12.646;2023-08-17T05:47:30;101242.22;;;23.23
78961;BMP280;68362;45.970;12.646;2023-08-17T05:48:32;101249.44;;;23.09
78961;BMP280;68362;45.970;12.646;2023-08-17T05:49:34;101240.91;;;23.07
78961;BMP280;68362;45.970;12.646;2023-08-17T05:50:36;101246.25;;;23.53
78961;BMP280;68362;45.970;12.646;2023-08-17T05:51:39;101247.13;;;23.76
78961;BMP280;68362;45.970;12.646;2023-08-17T05:52:41;101239.75;;;23.95
78961;BMP280;68362;45.970;12.646;2023-08-17T05:53:43;101249.28;;;23.46
78961;BMP280;68362;45.970;12.646;2023-08-17T05:54:45;101243.53;;;23.67
78961;BMP280;68362;45.970;12.646;2023-08-17T05:55:48;101245.53;;;23.75